createdAt,value
2023-01-13T00:00:47.761Z,99920.03
2023-01-13T00:03:14.264Z,99918.25
2023-01-13T00:05:40.804Z,99924.16
2023-01-13T00:08:07.441Z,99906.03
2023-01-13T00:10:35.007Z,99907.91
2023-01-13T00:13:05.106Z,99913.97
2023-01-13T00:15:32.307Z,99907.97
2023-01-13T00:17:58.742Z,99900.94
2023-01-13T00:20:25.177Z,99894.88
2023-01-13T00:22:51.577Z,99895.78
2023-01-13T00:25:17.955Z,99901.13
2023-01-13T00:27:44.426Z,99905.25
2023-01-13T00:30:11.561Z,99898.25
2023-01-13T00:32:38.149Z,99888.69
2023-01-13T00:35:05.053Z,99886.16
2023-01-13T00:37:31.476Z,99893.00
2023-01-13T00:39:57.979Z,99892.06
2023-01-13T00:42:43.234Z,99888.69
2023-01-13T00:45:10.021Z,99884.34
2023-01-13T00:47:36.547Z,99883.53
2023-01-13T00:50:02.992Z,99882.75
2023-01-13T00:52:32.196Z,99881.84
2023-01-13T00:54:58.643Z,99877.56
2023-01-13T00:57:25.132Z,99868.94
2023-01-13T00:59:51.539Z,99871.63
2023-01-13T01:02:18.073Z,99868.09
2023-01-13T01:04:44.653Z,99860.34
2023-01-13T01:07:11.453Z,99868.28
2023-01-13T01:09:39.300Z,99863.28
2023-01-13T01:12:06.039Z,99859.03
2023-01-13T01:14:32.694Z,99855.66
2023-01-13T01:16:59.127Z,99849.34
2023-01-13T01:19:25.647Z,99866.66
2023-01-13T01:21:52.144Z,99856.91
2023-01-13T01:24:18.627Z,99845.38
2023-01-13T01:26:45.156Z,99858.47
2023-01-13T01:29:15.460Z,99859.25
2023-01-13T01:31:42.852Z,99847.75
2023-01-13T01:34:09.348Z,99850.59
2023-01-13T01:36:36.515Z,99855.66
2023-01-13T01:39:04.121Z,99851.06
2023-01-13T01:41:32.616Z,99846.84
2023-01-13T01:44:59.776Z,99851.22
2023-01-13T01:47:56.321Z,99841.78
2023-01-13T01:50:42.989Z,99835.81
2023-01-13T01:53:32.293Z,99830.72
2023-01-13T01:56:19.269Z,99835.16
2023-01-13T01:59:06.462Z,99834.44
2023-01-13T02:01:34.230Z,99825.84
2023-01-13T02:04:12.831Z,99823.28
2023-01-13T02:06:39.701Z,99821.34
2023-01-13T02:09:07.161Z,99817.94
2023-01-13T02:11:54.464Z,99822.25
2023-01-13T02:14:23.591Z,99828.44
2023-01-13T02:17:26.136Z,99821.53
2023-01-13T02:20:11.784Z,99832.94
2023-01-13T02:23:03.520Z,99827.09
2023-01-13T02:25:48.540Z,99824.50
2023-01-13T02:28:38.560Z,99824.81
2023-01-13T02:31:32.991Z,99816.34
2023-01-13T02:34:11.599Z,99817.25
2023-01-13T02:36:43.839Z,99812.16
2023-01-13T02:39:18.856Z,99828.63
2023-01-13T02:42:21.003Z,99813.94
2023-01-13T02:45:12.917Z,99815.69
2023-01-13T02:47:42.889Z,99800.13
2023-01-13T02:50:13.704Z,99821.19
2023-01-13T02:52:54.998Z,99798.59
2023-01-13T02:55:43.982Z,99783.94
2023-01-13T02:58:15.867Z,99792.72
2023-01-13T03:00:44.400Z,99784.97
2023-01-13T03:03:11.133Z,99786.72
2023-01-13T03:05:40.973Z,99782.38
2023-01-13T03:08:19.000Z,99781.41
2023-01-13T03:10:57.510Z,99773.66
2023-01-13T03:13:43.140Z,99791.81
2023-01-13T03:16:42.257Z,99775.34
2023-01-13T03:19:16.323Z,99766.56
2023-01-13T03:21:57.137Z,99763.75
2023-01-13T03:24:42.892Z,99772.41
2023-01-13T03:27:39.645Z,99759.38
2023-01-13T03:30:32.470Z,99757.72
2023-01-13T03:33:31.465Z,99755.94
2023-01-13T03:36:03.793Z,99759.47
2023-01-13T03:38:38.521Z,99768.19
2023-01-13T03:41:27.836Z,99772.63
2023-01-13T03:44:23.844Z,99763.19
2023-01-13T03:46:59.580Z,99759.66
2023-01-13T03:49:34.313Z,99770.19
2023-01-13T03:52:05.671Z,99753.81
2023-01-13T03:54:38.327Z,99751.25
2023-01-13T03:57:10.095Z,99764.22
2023-01-13T03:59:41.231Z,99746.13
2023-01-13T04:02:14.852Z,99750.41
2023-01-13T04:04:49.317Z,99744.28
2023-01-13T04:07:51.485Z,99747.81
2023-01-13T04:10:25.628Z,99738.25
2023-01-13T04:13:01.759Z,99736.44
2023-01-13T04:15:56.651Z,99738.13
2023-01-13T04:18:26.938Z,99736.31
2023-01-13T04:20:56.008Z,99730.19
2023-01-13T04:23:23.713Z,99728.41
2023-01-13T04:25:51.322Z,99717.09
2023-01-13T04:28:19.205Z,99724.91
2023-01-13T04:30:46.922Z,99723.16
2023-01-13T04:33:14.728Z,99724.69
2023-01-13T04:35:41.626Z,99725.53
2023-01-13T04:38:11.643Z,99722.72
2023-01-13T04:40:39.318Z,99727.09
2023-01-13T04:43:06.145Z,99717.53
2023-01-13T04:45:33.736Z,99714.06
2023-01-13T04:48:00.739Z,99718.31
2023-01-13T04:50:27.838Z,99712.13
2023-01-13T04:52:55.007Z,99717.06
2023-01-13T04:55:24.100Z,99715.31
2023-01-13T04:57:50.815Z,99711.00
2023-01-13T05:00:19.614Z,99709.06
2023-01-13T05:02:46.390Z,99709.66
2023-01-13T05:05:13.348Z,99706.06
2023-01-13T05:07:39.834Z,99700.94
2023-01-13T05:10:07.208Z,99705.16
2023-01-13T05:12:53.121Z,99702.56
2023-01-13T05:15:38.883Z,99692.22
2023-01-13T05:18:05.650Z,99676.50
2023-01-13T05:20:32.329Z,99690.31
2023-01-13T05:23:18.201Z,99679.91
2023-01-13T05:25:47.764Z,99685.81
2023-01-13T05:28:14.949Z,99673.56
2023-01-13T05:30:44.500Z,99672.66
2023-01-13T05:33:12.767Z,99670.81
2023-01-13T05:35:41.444Z,99667.44
2023-01-13T05:38:08.819Z,99664.00
2023-01-13T05:40:54.086Z,99664.75
2023-01-13T05:43:24.759Z,99677.72
2023-01-13T05:45:57.109Z,99668.81
2023-01-13T05:48:26.065Z,99662.78
2023-01-13T05:50:53.929Z,99664.38
2023-01-13T05:53:21.914Z,99671.53
2023-01-13T05:55:48.800Z,99678.56
2023-01-13T05:58:16.846Z,99677.66
2023-01-13T06:00:43.349Z,99671.81
2023-01-13T06:03:10.676Z,99685.47
2023-01-13T06:05:37.915Z,99675.91
2023-01-13T06:08:06.646Z,99678.56
2023-01-13T06:10:33.971Z,99675.97
2023-01-13T06:13:01.322Z,99685.47
2023-01-13T06:15:27.901Z,99702.03
2023-01-13T06:17:54.759Z,99691.34
2023-01-13T06:20:21.297Z,99701.94
2023-01-13T06:22:49.429Z,99707.28
2023-01-13T06:25:22.095Z,99708.63
2023-01-13T06:27:49.332Z,99727.28
2023-01-13T06:30:17.380Z,99728.59
2023-01-13T06:32:47.789Z,99712.97
2023-01-13T06:35:17.089Z,99716.69
2023-01-13T06:37:45.200Z,99714.06
2023-01-13T06:40:13.999Z,99717.66
2023-01-13T06:42:59.766Z,99717.53
2023-01-13T06:45:28.993Z,99715.97
2023-01-13T06:47:57.677Z,99730.59
2023-01-13T06:50:24.179Z,99755.09
2023-01-13T06:52:51.123Z,99752.91
2023-01-13T06:55:17.670Z,99788.63
2023-01-13T06:57:52.887Z,99814.09
2023-01-13T07:00:20.795Z,99800.72
2023-01-13T07:02:48.675Z,99804.16
2023-01-13T07:05:16.363Z,99813.06
2023-01-13T07:07:44.261Z,99817.22
2023-01-13T07:10:14.101Z,99811.72
2023-01-13T07:13:00.090Z,99799.50
2023-01-13T07:15:26.748Z,99811.06
2023-01-13T07:17:53.451Z,99795.75
2023-01-13T07:20:20.293Z,99796.66
2023-01-13T07:22:46.817Z,99794.84
2023-01-13T07:25:13.799Z,99802.78
2023-01-13T07:27:40.363Z,99815.25
2023-01-13T07:30:07.776Z,99833.53
2023-01-13T07:32:35.118Z,99833.53
2023-01-13T07:35:05.463Z,99835.13
2023-01-13T07:37:36.583Z,99831.91
2023-01-13T07:40:04.767Z,99838.06
2023-01-13T07:42:49.879Z,99817.19
2023-01-13T07:45:16.796Z,99828.50
2023-01-13T07:47:43.376Z,99838.13
2023-01-13T07:50:10.838Z,99839.25
2023-01-13T07:52:37.261Z,99825.41
2023-01-13T07:55:03.864Z,99820.41
2023-01-13T07:57:30.776Z,99830.72
2023-01-13T07:59:57.309Z,99841.88
2023-01-13T08:02:24.553Z,99817.81
2023-01-13T08:04:51.137Z,99808.31
2023-01-13T08:07:17.899Z,99811.72
2023-01-13T08:09:44.415Z,99820.47
2023-01-13T08:12:29.523Z,99847.34
2023-01-13T08:14:56.301Z,99856.88
2023-01-13T08:17:23.305Z,99876.78
2023-01-13T08:19:50.265Z,99874.31
2023-01-13T08:22:17.249Z,99889.22
2023-01-13T08:24:46.675Z,99903.03
2023-01-13T08:27:13.380Z,99902.34
2023-01-13T08:29:39.993Z,99900.53
2023-01-13T08:32:06.965Z,99909.28
2023-01-13T08:34:35.849Z,99911.03
2023-01-13T08:37:02.252Z,99917.84
2023-01-13T08:39:29.088Z,99918.91
2023-01-13T08:41:56.060Z,99928.50
2023-01-13T08:44:23.913Z,99924.09
2023-01-13T08:46:50.509Z,99916.50
2023-01-13T08:49:17.977Z,99918.97
2023-01-13T08:51:45.135Z,99919.75
2023-01-13T08:54:11.688Z,99923.31
2023-01-13T08:56:39.065Z,99931.97
2023-01-13T08:59:06.174Z,99930.25
2023-01-13T09:01:33.870Z,99930.25
2023-01-13T09:04:00.717Z,99934.50
2023-01-13T09:10:47.103Z,99941.28
2023-01-13T09:13:33.666Z,99927.38
2023-01-13T09:16:20.239Z,99935.06
2023-01-13T09:19:06.986Z,99939.25
2023-01-13T09:21:54.927Z,99944.22
2023-01-13T09:24:41.683Z,99953.44
2023-01-13T09:27:28.095Z,99952.56
2023-01-13T09:29:54.484Z,99948.75
2023-01-13T09:32:20.918Z,99953.75
2023-01-13T09:35:03.006Z,99957.34
2023-01-13T09:37:37.659Z,99972.03
2023-01-13T09:40:09.489Z,99965.38
2023-01-13T09:43:10.857Z,99970.50
2023-01-13T09:45:42.896Z,99974.06
2023-01-13T09:48:28.216Z,99969.34
2023-01-13T09:51:06.751Z,99975.25
2023-01-13T09:53:51.329Z,99958.78
2023-01-13T09:56:17.813Z,99977.84
2023-01-13T09:58:46.703Z,99977.84
2023-01-13T10:01:16.731Z,99965.69
2023-01-13T10:03:43.588Z,99983.91
2023-01-13T10:06:34.767Z,99984.78
2023-01-13T10:09:01.807Z,100000.41
2023-01-13T10:12:00.284Z,100000.66
2023-01-13T10:14:40.376Z,99989.56
2023-01-13T10:17:25.931Z,99993.09
2023-01-13T10:20:10.500Z,99996.41
2023-01-13T10:23:01.888Z,99990.31
2023-01-13T10:25:35.797Z,99974.44
2023-01-13T10:28:10.112Z,99975.97
2023-01-13T10:30:41.127Z,99970.78
2023-01-13T10:33:10.959Z,99970.09
2023-01-13T10:36:00.800Z,99968.22
2023-01-13T10:38:49.886Z,99982.25
2023-01-13T10:41:16.374Z,99984.00
2023-01-13T10:43:52.184Z,99971.00
2023-01-13T10:46:20.171Z,99968.34
2023-01-13T10:48:46.623Z,99977.00
2023-01-13T10:51:19.836Z,99984.78
2023-01-13T10:53:57.323Z,99981.41
2023-01-13T10:56:27.836Z,99979.59
2023-01-13T10:59:09.317Z,99978.41
2023-01-13T11:01:37.274Z,99984.59
2023-01-13T11:04:26.604Z,99970.59
2023-01-13T11:06:54.019Z,99954.81
2023-01-13T11:09:22.589Z,99989.34
2023-01-13T11:11:55.724Z,99982.16
2023-01-13T11:14:41.482Z,99986.56
2023-01-13T11:17:22.981Z,99977.13
2023-01-13T11:20:00.624Z,99976.41
2023-01-13T11:22:35.349Z,99980.78
2023-01-13T11:25:05.228Z,99985.47
2023-01-13T11:27:53.151Z,99986.50
2023-01-13T11:30:37.017Z,99993.31
2023-01-13T11:33:09.643Z,100006.47
2023-01-13T11:35:45.619Z,99987.66
2023-01-13T11:38:48.041Z,99987.53
2023-01-13T11:41:22.305Z,99984.91
2023-01-13T11:44:12.244Z,99979.53
2023-01-13T11:46:41.182Z,99985.47
2023-01-13T11:49:17.872Z,99979.28
2023-01-13T11:51:54.503Z,99992.25
2023-01-13T11:54:29.630Z,99993.03
2023-01-13T11:57:26.605Z,100000.97
2023-01-13T12:00:24.665Z,100001.94
2023-01-13T12:03:06.286Z,99999.28
2023-01-13T12:05:32.743Z,100010.53
2023-01-13T12:08:06.227Z,100007.94
2023-01-13T12:10:45.267Z,100016.47
2023-01-13T12:14:06.658Z,100013.75
2023-01-13T12:16:33.955Z,100011.56
2023-01-13T12:19:25.337Z,100009.22
2023-01-13T12:22:08.824Z,100003.41
2023-01-13T12:24:39.727Z,100005.75
2023-01-13T12:27:15.787Z,100002.00
2023-01-13T12:29:44.147Z,100009.19
2023-01-13T12:32:22.104Z,99989.41
2023-01-13T12:35:05.170Z,99988.38
2023-01-13T12:37:44.727Z,99982.94
2023-01-13T12:40:38.809Z,99988.94
2023-01-13T12:43:37.962Z,99976.41
2023-01-13T12:46:21.386Z,99987.41
2023-01-13T12:48:57.242Z,100000.94
2023-01-13T12:51:37.815Z,99989.66
2023-01-13T12:54:24.536Z,99999.06
2023-01-13T12:56:52.928Z,99977.44
2023-01-13T12:59:19.794Z,99985.44
2023-01-13T13:01:49.063Z,99991.22
2023-01-13T13:04:21.368Z,99992.25
2023-01-13T13:07:09.724Z,99979.03
2023-01-13T13:09:51.601Z,99973.81
2023-01-13T13:12:49.398Z,99971.56
2023-01-13T13:15:24.472Z,99979.81
2023-01-13T13:18:20.979Z,99978.56
2023-01-13T13:20:56.848Z,99980.94
2023-01-13T13:24:02.994Z,100005.72
2023-01-13T13:26:45.724Z,100012.94
2023-01-13T13:29:35.659Z,100016.44
2023-01-13T13:32:27.276Z,100034.88
2023-01-13T13:35:21.776Z,100034.34
2023-01-13T13:38:25.905Z,100044.78
2023-01-13T13:41:11.099Z,100038.72
2023-01-13T13:44:00.620Z,100041.28
2023-01-13T13:46:48.178Z,100038.34
2023-01-13T13:49:34.698Z,100050.63
2023-01-13T13:52:09.089Z,100066.91
2023-01-13T13:54:37.082Z,100045.06
2023-01-13T13:57:03.583Z,100063.56
2023-01-13T13:59:31.339Z,100062.25
2023-01-13T14:02:02.059Z,100077.19
2023-01-13T14:04:32.507Z,100071.66
2023-01-13T14:07:16.262Z,100092.28
2023-01-13T14:09:46.375Z,100087.41
2023-01-13T14:12:27.520Z,100086.88
2023-01-13T14:14:59.991Z,100091.41
2023-01-13T14:17:28.967Z,100089.22
2023-01-13T14:20:00.578Z,100086.53
2023-01-13T14:22:27.459Z,100097.28
2023-01-13T14:24:57.980Z,100115.50
2023-01-13T14:27:27.525Z,100112.44
2023-01-13T14:30:00.270Z,100112.38
2023-01-13T14:32:36.573Z,100115.97
2023-01-13T14:35:07.157Z,100123.25
2023-01-13T14:37:38.629Z,100115.59
2023-01-13T14:40:06.272Z,100138.97
2023-01-13T14:42:35.232Z,100142.13
2023-01-13T14:45:03.054Z,100135.06
2023-01-13T14:47:33.765Z,100148.88
2023-01-13T14:50:19.412Z,100146.09
2023-01-13T14:52:54.420Z,100155.00
2023-01-13T14:55:36.562Z,100155.94
2023-01-13T14:58:21.605Z,100144.97
2023-01-13T15:00:49.696Z,100150.84
2023-01-13T15:03:18.407Z,100154.53
2023-01-13T15:05:50.136Z,100164.97
2023-01-13T15:08:17.484Z,100171.81
2023-01-13T15:10:46.937Z,100168.47
2023-01-13T15:13:28.965Z,100171.88
2023-01-13T15:15:58.010Z,100180.81
2023-01-13T15:18:25.265Z,100175.31
2023-01-13T15:20:52.350Z,100175.19
2023-01-13T15:23:20.249Z,100183.31
2023-01-13T15:25:48.311Z,100190.47
2023-01-13T15:28:21.085Z,100192.53
2023-01-13T15:30:49.946Z,100202.97
2023-01-13T15:33:17.426Z,100211.63
2023-01-13T15:35:48.011Z,100223.09
2023-01-13T15:38:16.273Z,100219.59
2023-01-13T15:40:43.350Z,100220.28
2023-01-13T15:43:37.029Z,100222.19
2023-01-13T15:46:20.224Z,100229.19
2023-01-13T15:48:46.920Z,100230.13
2023-01-13T15:51:21.058Z,100238.84
2023-01-13T15:53:47.643Z,100240.59
2023-01-13T15:56:24.688Z,100227.53
2023-01-13T15:58:51.148Z,100238.38
2023-01-13T16:01:18.014Z,100229.94
2023-01-13T16:03:44.807Z,100227.34
2023-01-13T16:06:18.487Z,100238.47
2023-01-13T16:08:45.419Z,100235.81
2023-01-13T16:11:12.380Z,100240.25
2023-01-13T16:13:40.051Z,100237.50
2023-01-13T16:16:17.961Z,100250.63
2023-01-13T16:18:45.042Z,100250.66
2023-01-13T16:21:13.067Z,100247.97
2023-01-13T16:23:40.102Z,100245.47
2023-01-13T16:26:14.168Z,100256.66
2023-01-13T16:28:40.602Z,100262.72
2023-01-13T16:31:36.776Z,100268.06
2023-01-13T16:34:04.798Z,100256.84
2023-01-13T16:36:35.362Z,100266.41
2023-01-13T16:39:02.767Z,100271.59
2023-01-13T16:41:30.100Z,100281.13
2023-01-13T16:43:56.832Z,100293.75
2023-01-13T16:46:28.958Z,100305.69
2023-01-13T16:49:01.854Z,100321.09
2023-01-13T16:51:28.339Z,100319.88
2023-01-13T16:53:55.269Z,100337.28
2023-01-13T16:56:28.000Z,100336.25
2023-01-13T16:58:57.255Z,100357.03
2023-01-13T17:01:29.388Z,100340.47
2023-01-13T17:03:56.991Z,100344.91
2023-01-13T17:06:32.241Z,100347.66
2023-01-13T17:09:04.502Z,100351.09
2023-01-13T17:11:31.708Z,100343.38
2023-01-13T17:13:58.257Z,100361.34
2023-01-13T17:16:26.061Z,100354.47
2023-01-13T17:18:52.967Z,100361.50
2023-01-13T17:21:19.932Z,100356.31
2023-01-13T17:23:46.393Z,100364.16
2023-01-13T17:26:32.324Z,100363.25
2023-01-13T17:29:00.419Z,100366.81
2023-01-13T17:31:28.579Z,100370.31
2023-01-13T17:33:56.239Z,100376.41
2023-01-13T17:36:24.745Z,100382.41
2023-01-13T17:38:52.142Z,100388.50
2023-01-13T17:41:18.687Z,100386.91
2023-01-13T17:43:45.487Z,100387.84
2023-01-13T17:46:14.199Z,100393.91
2023-01-13T17:48:40.972Z,100399.16
2023-01-13T17:51:12.133Z,100389.59
2023-01-13T17:53:41.893Z,100393.09
2023-01-13T17:56:10.251Z,100405.28
2023-01-13T17:58:38.490Z,100419.25
2023-01-13T18:01:22.323Z,100421.03
2023-01-13T18:03:49.247Z,100409.00
2023-01-13T18:06:22.089Z,100426.41
2023-01-13T18:08:49.550Z,100420.47
2023-01-13T18:11:21.764Z,100430.94
2023-01-13T18:13:50.121Z,100427.44
2023-01-13T18:16:19.318Z,100432.53
2023-01-13T18:18:47.985Z,100435.16
2023-01-13T18:21:43.211Z,100440.34
2023-01-13T18:24:51.355Z,100442.16
2023-01-13T18:27:24.573Z,100435.19
2023-01-13T18:29:55.972Z,100460.44
2023-01-13T18:32:24.612Z,100461.28
2023-01-13T18:35:01.619Z,100475.97
2023-01-13T18:37:32.377Z,100486.41
2023-01-13T18:39:58.980Z,100484.78
2023-01-13T18:42:44.158Z,100476.94
2023-01-13T18:45:11.361Z,100483.06
2023-01-13T18:47:42.185Z,100491.66
2023-01-13T18:50:09.919Z,100492.53
2023-01-13T18:52:36.801Z,100491.72
2023-01-13T18:55:04.084Z,100494.41
2023-01-13T18:57:30.546Z,100488.34
2023-01-13T18:59:57.635Z,100495.38
2023-01-13T19:02:26.294Z,100487.59
2023-01-13T19:04:53.832Z,100483.28
2023-01-13T19:07:26.744Z,100508.53
2023-01-13T19:09:57.445Z,100518.19
2023-01-13T19:12:26.164Z,100510.38
2023-01-13T19:14:59.890Z,100512.19
2023-01-13T19:17:32.832Z,100517.44
2023-01-13T19:20:00.112Z,100522.63
2023-01-13T19:22:30.238Z,100520.09
2023-01-13T19:24:58.074Z,100533.13
2023-01-13T19:27:29.351Z,100525.38
2023-01-13T19:30:00.315Z,100554.03
2023-01-13T19:32:28.672Z,100525.56
2023-01-13T19:34:59.208Z,100528.25
2023-01-13T19:37:30.400Z,100536.03
2023-01-13T19:39:58.410Z,100532.56
2023-01-13T19:42:44.020Z,100530.81
2023-01-13T19:45:27.285Z,100543.81
2023-01-13T19:47:55.550Z,100554.28
2023-01-13T19:50:22.380Z,100572.38
2023-01-13T19:52:48.881Z,100563.88
2023-01-13T19:55:15.345Z,100565.75
2023-01-13T19:57:43.317Z,100563.25
2023-01-13T20:00:11.129Z,100576.41
2023-01-13T20:02:47.557Z,100572.13
2023-01-13T20:05:17.942Z,100579.91
2023-01-13T20:07:48.714Z,100567.84
2023-01-13T20:10:16.527Z,100565.34
2023-01-13T20:12:43.628Z,100564.81
2023-01-13T20:15:10.574Z,100590.84
2023-01-13T20:17:37.371Z,100590.84
2023-01-13T20:20:04.324Z,100593.47
2023-01-13T20:22:31.061Z,100595.41
2023-01-13T20:24:57.889Z,100596.47
2023-01-13T20:27:24.441Z,100593.19
2023-01-13T20:29:51.173Z,100602.03
2023-01-13T20:32:17.677Z,100605.31
2023-01-13T20:34:44.160Z,100609.63
2023-01-13T20:37:10.670Z,100615.78
2023-01-13T20:39:37.205Z,100601.16
2023-01-13T20:42:22.446Z,100593.53
2023-01-13T20:44:49.782Z,100611.41
2023-01-13T20:47:16.485Z,100604.50
2023-01-13T20:49:42.944Z,100609.72
2023-01-13T20:52:10.505Z,100609.75
2023-01-13T20:54:38.265Z,100611.50
2023-01-13T20:57:07.460Z,100616.84
2023-01-13T20:59:34.321Z,100616.97
2023-01-13T21:02:01.578Z,100613.44
2023-01-13T21:04:28.831Z,100628.25
2023-01-13T21:06:56.250Z,100613.66
2023-01-13T21:09:27.418Z,100615.41
2023-01-13T21:12:15.316Z,100623.19
2023-01-13T21:15:00.593Z,100623.16
2023-01-13T21:17:46.121Z,100630.31
2023-01-13T21:20:14.851Z,100634.41
2023-01-13T21:22:46.543Z,100634.47
2023-01-13T21:25:14.031Z,100627.53
2023-01-13T21:27:41.820Z,100621.34
2023-01-13T21:30:09.012Z,100624.78
2023-01-13T21:32:35.516Z,100626.56
2023-01-13T21:35:02.446Z,100622.25
2023-01-13T21:37:28.899Z,100628.34
2023-01-13T21:39:55.719Z,100636.00
2023-01-13T21:42:40.772Z,100655.19
2023-01-13T21:45:29.351Z,100653.50
2023-01-13T21:47:56.746Z,100651.78
2023-01-13T21:50:28.406Z,100653.47
2023-01-13T21:52:55.996Z,100659.56
2023-01-13T21:55:25.643Z,100658.69
2023-01-13T21:57:55.452Z,100663.84
2023-01-13T22:00:23.963Z,100664.81
2023-01-13T22:02:50.854Z,100664.78
2023-01-13T22:05:20.358Z,100663.00
2023-01-13T22:07:47.780Z,100667.41
2023-01-13T22:10:17.365Z,100663.97
2023-01-13T22:12:44.829Z,100672.59
2023-01-13T22:15:14.455Z,100685.69
2023-01-13T22:17:42.350Z,100684.78
2023-01-13T22:20:11.079Z,100681.34
2023-01-13T22:22:37.864Z,100678.63
2023-01-13T22:25:08.079Z,100672.69
2023-01-13T22:27:40.524Z,100677.88
2023-01-13T22:30:12.300Z,100665.75
2023-01-13T22:32:39.332Z,100668.38
2023-01-13T22:35:10.356Z,100670.19
2023-01-13T22:37:37.592Z,100677.94
2023-01-13T22:40:05.695Z,100687.59
2023-01-13T22:42:32.344Z,100690.19
2023-01-13T22:44:59.072Z,100688.53
2023-01-13T22:47:25.524Z,100701.53
2023-01-13T22:49:52.096Z,100696.31
2023-01-13T22:52:19.318Z,100689.53
2023-01-13T22:54:45.779Z,100692.88
2023-01-13T22:57:12.616Z,100707.56
2023-01-13T22:59:39.126Z,100704.03
2023-01-13T23:02:05.668Z,100720.47
2023-01-13T23:04:32.678Z,100710.94
2023-01-13T23:07:00.069Z,100708.31
2023-01-13T23:09:29.713Z,100709.13
2023-01-13T23:11:59.227Z,100716.00
2023-01-13T23:14:25.970Z,100719.41
2023-01-13T23:16:53.035Z,100704.75
2023-01-13T23:19:19.869Z,100716.78
2023-01-13T23:21:46.477Z,100705.59
2023-01-13T23:24:13.397Z,100720.38
2023-01-13T23:26:40.688Z,100718.59
2023-01-13T23:29:09.655Z,100714.28
2023-01-13T23:31:36.396Z,100717.66
2023-01-13T23:34:03.174Z,100715.78
2023-01-13T23:36:29.981Z,100719.19
2023-01-13T23:38:59.044Z,100715.66
2023-01-13T23:41:27.393Z,100711.34
2023-01-13T23:43:59.425Z,100715.66
2023-01-13T23:46:28.113Z,100717.38
2023-01-13T23:48:55.448Z,100713.22
2023-01-13T23:51:22.913Z,100713.38
2023-01-13T23:53:50.655Z,100713.34
2023-01-13T23:56:20.472Z,100719.44
2023-01-13T23:58:48.221Z,100716.00
